Check out our new BloomSky Weather System.

Active alerts


No alerts


Thunder radar  blitzortung!


Rain radar more information rain snow radar


Visit our other weather sites:

Template documentation
and downloads

And another site



Weather Underground History page Text

Daily Summary for April 24, 2017 Units:  Metric    English   Both
« Previous Day
Next Day »
Daily Weekly Monthly Yearly Custom
  High: Low: Average:
Temperature: -17.8 °C 9.8 °C 19.4 °C
Dew Point: -17.8 °C 9.1 °C 11.5 °C
Humidity: Humidity % 34 % 65 %
Wind Speed: 0 km/h 0 km/h 3.2 km/h
Wind Gust: 0 km/h - -
Wind:- - South
Pressure: 0 hPa 1007.3 hPa -
Precipitation: 0 mm    
Historical Graphs
 
 
Tabular Data for April 24, 2017
Time Temperature Dew Point Pressure Wind Wind Speed Wind Gust Humidity Rainfall Rate (Hourly)
-17.8 °C -17.8 °C 0 hPa Calm     Humidity % 0 mm
00:01 13.4 °C 10.8 °C 1015.1 hPa Calm   1.6 km/h 84 % 0 mm
00:06 13.4 °C 10.8 °C 1015.1 hPa Calm     84 % 0 mm
00:11 13.3 °C 10.8 °C 1015.1 hPa Calm     85 % 0 mm
00:16 13.2 °C 10.7 °C 1015.1 hPa Calm     85 % 0 mm
00:21 13.2 °C 10.9 °C 1015.1 hPa Calm     86 % 0 mm
00:26 13.1 °C 10.8 °C 1015.1 hPa Calm     86 % 0 mm
00:31 13.2 °C 10.9 °C 1015.1 hPa Calm     86 % 0 mm
00:36 13.2 °C 10.9 °C 1015.1 hPa Calm     86 % 0 mm
00:41 13.1 °C 10.8 °C 1014.8 hPa Calm     86 % 0 mm
00:46 12.9 °C 10.8 °C 1015.1 hPa Calm     87 % 0 mm
00:51 12.8 °C 10.7 °C 1014.8 hPa Calm     87 % 0 mm
00:56 12.7 °C 10.8 °C 1014.8 hPa Calm     88 % 0 mm
01:01 12.6 °C 10.7 °C 1014.8 hPa Calm     88 % 0 mm
01:06 12.5 °C 10.7 °C 1014.8 hPa Calm     89 % 0 mm
01:11 12.6 °C 10.8 °C 1014.8 hPa Calm     89 % 0 mm
01:16 12.4 °C 10.6 °C 1014.8 hPa Calm     89 % 0 mm
01:21 12.4 °C 10.8 °C 1014.8 hPa Calm     90 % 0 mm
01:26 12.3 °C 10.7 °C 1014.8 hPa Calm     90 % 0 mm
01:31 12.3 °C 10.7 °C 1014.8 hPa Calm     90 % 0 mm
01:36 12.2 °C 10.6 °C 1014.8 hPa Calm     90 % 0 mm
01:41 12.2 °C 10.6 °C 1014.8 hPa Calm     90 % 0 mm
01:46 12.2 °C 10.6 °C 1014.8 hPa Calm     90 % 0 mm
01:51 12.1 °C 10.5 °C 1014.8 hPa Calm     90 % 0 mm
01:56 12 °C 10.6 °C 1014.8 hPa Calm     91 % 0 mm
02:01 11.9 °C 10.5 °C 1014.8 hPa Calm     91 % 0 mm
02:06 11.8 °C 10.4 °C 1015.1 hPa Calm     91 % 0 mm
02:11 11.8 °C 10.4 °C 1015.1 hPa Calm     91 % 0 mm
02:16 11.9 °C 10.5 °C 1015.1 hPa Calm   1.6 km/h 91 % 0 mm
02:21 11.8 °C 10.5 °C 1014.8 hPa Calm   1.6 km/h 92 % 0 mm
02:26 11.9 °C 10.5 °C 1014.8 hPa Calm   1.6 km/h 91 % 0 mm
02:31 11.8 °C 10.4 °C 1014.8 hPa Calm     91 % 0 mm
02:36 11.8 °C 10.5 °C 1014.8 hPa Calm     92 % 0 mm
02:41 11.7 °C 10.4 °C 1014.8 hPa Calm     92 % 0 mm
02:46 11.7 °C 10.4 °C 1014.8 hPa Calm     92 % 0 mm
02:51 11.7 °C 10.4 °C 1014.8 hPa Calm     92 % 0 mm
02:56 11.6 °C 10.3 °C 1014.8 hPa Calm     92 % 0 mm
03:01 11.7 °C 10.4 °C 1014.4 hPa Calm   1.6 km/h 92 % 0 mm
03:06 11.7 °C 10.4 °C 1014.1 hPa ENE 1.6 km/h 1.6 km/h 92 % 0 mm
03:11 11.7 °C 10.4 °C 1014.4 hPa Calm   1.6 km/h 92 % 0 mm
03:16 11.7 °C 10.4 °C 1014.4 hPa Calm   1.6 km/h 92 % 0 mm
03:21 11.6 °C 10.3 °C 1014.8 hPa Calm   1.6 km/h 92 % 0 mm
03:26 11.5 °C 10.2 °C 1014.4 hPa Calm   1.6 km/h 92 % 0 mm
03:31 11.5 °C 10.2 °C 1014.4 hPa Calm   1.6 km/h 92 % 0 mm
03:36 11.5 °C 10.2 °C 1014.8 hPa Calm     92 % 0 mm
03:41 11.4 °C 10.1 °C 1014.4 hPa Calm     92 % 0 mm
03:46 11.4 °C 10.1 °C 1014.4 hPa Calm     92 % 0 mm
03:51 11.3 °C 10 °C 1014.4 hPa Calm     92 % 0 mm
03:56 11.2 °C 9.9 °C 1014.4 hPa Calm     92 % 0 mm
04:01 11.2 °C 10.1 °C 1014.4 hPa Calm     93 % 0 mm
04:06 11.1 °C 9.8 °C 1014.4 hPa Calm     92 % 0 mm
04:11 11 °C 9.9 °C 1014.4 hPa Calm     93 % 0 mm
04:16 11.1 °C 10 °C 1014.4 hPa Calm     93 % 0 mm
04:21 10.9 °C 9.7 °C 1014.4 hPa Calm     92 % 0 mm
04:26 10.8 °C 9.6 °C 1014.1 hPa Calm     92 % 0 mm
04:31 10.7 °C 9.6 °C 1014.1 hPa Calm     93 % 0 mm
04:36 10.7 °C 9.6 °C 1014.1 hPa Calm     93 % 0 mm
04:39 10.6 °C 9.5 °C 1014.1 hPa Calm     93 % 0 mm
04:44 10.8 °C 9.9 °C 1014.1 hPa Calm     94 % 0 mm
04:49 10.8 °C 9.9 °C 1014.1 hPa Calm     94 % 0 mm
04:54 10.7 °C 9.6 °C 1014.1 hPa Calm     93 % 0 mm
04:59 10.7 °C 9.8 °C 1014.1 hPa Calm     94 % 0 mm
05:04 10.6 °C 9.7 °C 1013.8 hPa Calm     94 % 0 mm
05:09 10.6 °C 9.7 °C 1013.8 hPa Calm     94 % 0 mm
05:14 10.4 °C 9.5 °C 1013.8 hPa Calm     94 % 0 mm
05:19 10.6 °C 9.8 °C 1013.8 hPa Calm   1.6 km/h 95 % 0 mm
05:24 10.6 °C 9.7 °C 1014.1 hPa Calm   1.6 km/h 94 % 0 mm
05:29 10.5 °C 9.7 °C 1014.1 hPa Calm   1.6 km/h 95 % 0 mm
05:34 10.4 °C 9.6 °C 1014.1 hPa Calm     95 % 0 mm
05:39 10.4 °C 9.6 °C 1014.1 hPa Calm     95 % 0 mm
05:44 10.3 °C 9.5 °C 1014.1 hPa Calm     95 % 0 mm
05:49 10.2 °C 9.4 °C 1014.1 hPa Calm     95 % 0 mm
05:54 10.2 °C 9.4 °C 1014.4 hPa Calm     95 % 0 mm
05:59 10.1 °C 9.3 °C 1014.4 hPa Calm     95 % 0 mm
06:04 10.1 °C 9.3 °C 1014.1 hPa Calm     95 % 0 mm
06:09 10 °C 9.2 °C 1014.4 hPa Calm     95 % 0 mm
06:14 10.1 °C 9.3 °C 1014.4 hPa Calm     95 % 0 mm
06:19 10 °C 9.2 °C 1014.4 hPa Calm     95 % 0 mm
06:24 10 °C 9.4 °C 1014.1 hPa Calm     96 % 0 mm
06:29 10 °C 9.4 °C 1014.1 hPa Calm     96 % 0 mm
06:34 10 °C 9.4 °C 1014.4 hPa Calm     96 % 0 mm
06:39 9.9 °C 9.1 °C 1014.4 hPa Calm     95 % 0 mm
06:44 9.8 °C 9.2 °C 1014.4 hPa Calm     96 % 0 mm
06:54 9.8 °C 9.2 °C 1014.4 hPa Calm     96 % 0 mm
06:59 9.8 °C 9.2 °C 1014.4 hPa Calm     96 % 0 mm
07:04 10.1 °C 9.6 °C 1014.4 hPa Calm     97 % 0 mm
07:09 10.3 °C 9.7 °C 1014.4 hPa Calm   1.6 km/h 96 % 0 mm
07:14 10.5 °C 10 °C 1014.4 hPa Calm   1.6 km/h 97 % 0 mm
07:19 10.6 °C 10 °C 1014.4 hPa Calm   1.6 km/h 96 % 0 mm
07:29 11 °C 10.5 °C 1014.4 hPa Calm   1.6 km/h 97 % 0 mm
07:39 12 °C 11.4 °C 1014.4 hPa Calm   1.6 km/h 96 % 0 mm
07:41 12.2 °C 11.6 °C 1014.4 hPa Calm   1.6 km/h 96 % 0 mm
07:46 12.7 °C 12.1 °C 1014.8 hPa Calm   1.6 km/h 96 % 0 mm
07:51 13 °C 12.1 °C 1014.8 hPa Calm   1.6 km/h 94 % 0 mm
07:56 13 °C 11.7 °C 1014.8 hPa Calm   1.6 km/h 92 % 0 mm
08:01 13.4 °C 12.1 °C 1014.8 hPa Calm   1.6 km/h 92 % 0 mm
08:06 14 °C 12.7 °C 1014.8 hPa Calm   1.6 km/h 92 % 0 mm
08:11 14.5 °C 12.9 °C 1014.8 hPa Calm   1.6 km/h 90 % 0 mm
08:17 14.7 °C 12.6 °C 1014.8 hPa Calm   1.6 km/h 87 % 0 mm
08:22 15.1 °C 12.8 °C 1014.8 hPa North 1.6 km/h 3.2 km/h 86 % 0 mm
08:27 15.5 °C 12.6 °C 1014.8 hPa North 1.6 km/h 4.8 km/h 83 % 0 mm
08:32 15.8 °C 12.4 °C 1014.8 hPa WNW 1.6 km/h 4.8 km/h 80 % 0 mm
08:37 16.1 °C 12.5 °C 1014.8 hPa Calm   4.8 km/h 79 % 0 mm
08:42 16.4 °C 12.4 °C 1014.8 hPa NNW 1.6 km/h 4.8 km/h 77 % 0 mm
08:47 17.1 °C 13 °C 1014.8 hPa Calm   4.8 km/h 77 % 0 mm
08:52 17.9 °C 13.4 °C 1014.8 hPa Calm   3.2 km/h 75 % 0 mm
08:57 18.7 °C 13.8 °C 1014.8 hPa NNW 1.6 km/h 1.6 km/h 73 % 0 mm
09:02 19 °C 13.6 °C 1014.8 hPa Calm   1.6 km/h 71 % 0 mm
09:07 19.6 °C 14 °C 1015.1 hPa Calm   3.2 km/h 70 % 0 mm
09:12 20.1 °C 14.2 °C 1015.1 hPa NNE 1.6 km/h 3.2 km/h 69 % 0 mm
09:17 20.4 °C 13.4 °C 1015.1 hPa Calm   3.2 km/h 64 % 0 mm
09:22 20.5 °C 13.9 °C 1015.1 hPa Calm   3.2 km/h 66 % 0 mm
09:27 21.1 °C 14 °C 1015.1 hPa North 1.6 km/h 3.2 km/h 64 % 0 mm
09:32 21.5 °C 12.9 °C 1015.1 hPa Calm   3.2 km/h 58 % 0 mm
09:37 21.7 °C 12.3 °C 1015.1 hPa ENE 1.6 km/h 3.2 km/h 55 % 0 mm
09:42 21.8 °C 11.8 °C 1015.1 hPa East 1.6 km/h 3.2 km/h 53 % 0 mm
09:47 22.2 °C 12.7 °C 1015.1 hPa NNW 3.2 km/h 3.2 km/h 55 % 0 mm
09:52 22.3 °C 13.1 °C 1015.1 hPa ESE 4.8 km/h 4.8 km/h 56 % 0 mm
09:57 22.2 °C 11.9 °C 1014.8 hPa ESE 3.2 km/h 4.8 km/h 52 % 0 mm
10:02 22.1 °C 11.2 °C 1015.1 hPa SE 3.2 km/h 6.4 km/h 50 % 0 mm
10:07 22.1 °C 10.9 °C 1014.8 hPa Calm   6.4 km/h 49 % 0 mm
10:12 22.3 °C 11.4 °C 1014.8 hPa East 4.8 km/h 6.4 km/h 50 % 0 mm
10:17 22.3 °C 11.7 °C 1014.8 hPa SE 4.8 km/h 8 km/h 51 % 0 mm
10:22 22.3 °C 11.7 °C 1014.8 hPa Calm   8 km/h 51 % 0 mm
10:27 22.5 °C 10.6 °C 1014.8 hPa SSW 1.6 km/h 9.7 km/h 47 % 0 mm
10:32 22.3 °C 10.4 °C 1014.8 hPa SW 1.6 km/h 12.9 km/h 47 % 0 mm
10:37 22.5 °C 10.3 °C 1014.8 hPa ENE 3.2 km/h 12.9 km/h 46 % 0 mm
10:42 22.5 °C 11.3 °C 1014.4 hPa NE 3.2 km/h 12.9 km/h 49 % 0 mm
10:47 22.6 °C 10.7 °C 1014.4 hPa ESE 1.6 km/h 11.3 km/h 47 % 0 mm
10:52 22.6 °C 11 °C 1014.4 hPa Calm   6.4 km/h 48 % 0 mm
10:57 22.9 °C 10.7 °C 1014.4 hPa East 6.4 km/h 6.4 km/h 46 % 0 mm
11:02 22.7 °C 10.5 °C 1014.4 hPa ESE 8 km/h 14.5 km/h 46 % 0 mm
11:07 22.6 °C 11 °C 1014.4 hPa SSE 1.6 km/h 14.5 km/h 48 % 0 mm
11:12 23.1 °C 10.8 °C 1014.4 hPa ESE 3.2 km/h 14.5 km/h 46 % 0 mm
11:17 23.1 °C 11.2 °C 1014.4 hPa SSE 1.6 km/h 14.5 km/h 47 % 0 mm
11:22 23.7 °C 12 °C 1014.4 hPa SW 1.6 km/h 14.5 km/h 48 % 0 mm
11:27 23.9 °C 11.6 °C 1014.4 hPa ESE 3.2 km/h 14.5 km/h 46 % 0 mm
11:32 23.7 °C 11.1 °C 1014.4 hPa SSE 4.8 km/h 12.9 km/h 45 % 0 mm
11:37 23.6 °C 10.6 °C 1014.4 hPa ESE 4.8 km/h 12.9 km/h 44 % 0 mm
11:42 23.3 °C 10.4 °C 1014.1 hPa NNW 1.6 km/h 11.3 km/h 44 % 0 mm
11:47 23.2 °C 11.6 °C 1013.8 hPa SSE 1.6 km/h 11.3 km/h 48 % 0 mm
11:52 23.5 °C 10.9 °C 1013.8 hPa NNW 4.8 km/h 8 km/h 45 % 0 mm
11:57 23.7 °C 11.7 °C 1013.8 hPa SE 1.6 km/h 9.7 km/h 47 % 0 mm
12:02 23.6 °C 11.3 °C 1013.8 hPa Calm   9.7 km/h 46 % 0 mm
12:07 23.8 °C 11.8 °C 1013.4 hPa SSE 1.6 km/h 9.7 km/h 47 % 0 mm
12:12 24.1 °C 11.8 °C 1013.4 hPa SSW 6.4 km/h 11.3 km/h 46 % 0 mm
12:17 24.3 °C 11.6 °C 1013.4 hPa SSE 6.4 km/h 12.9 km/h 45 % 0 mm
12:22 24.5 °C 11.1 °C 1013.4 hPa South 1.6 km/h 12.9 km/h 43 % 0 mm
12:27 24.7 °C 10.2 °C 1013.1 hPa NNE 1.6 km/h 12.9 km/h 40 % 0 mm
12:32 24.5 °C 11.1 °C 1013.1 hPa NE 1.6 km/h 12.9 km/h 43 % 0 mm
12:37 24.8 °C 10.7 °C 1013.1 hPa SW 6.4 km/h 6.4 km/h 41 % 0 mm
12:42 24.9 °C 10 °C 1013.1 hPa ESE 9.7 km/h 9.7 km/h 39 % 0 mm
12:47 24.8 °C 11.4 °C 1013.1 hPa South 1.6 km/h 14.5 km/h 43 % 0 mm
12:52 24.9 °C 10 °C 1013.1 hPa SSW 1.6 km/h 14.5 km/h 39 % 0 mm
12:57 24.8 °C 10.7 °C 1012.8 hPa North 3.2 km/h 14.5 km/h 41 % 0 mm
13:02 24.8 °C 11.4 °C 1012.8 hPa SSW 3.2 km/h 11.3 km/h 43 % 0 mm
13:07 25.3 °C 11.1 °C 1012.8 hPa Calm   6.4 km/h 41 % 0 mm
13:12 25.8 °C 10.8 °C 1012.4 hPa SSE 6.4 km/h 6.4 km/h 39 % 0 mm
13:17 25.5 °C 10.1 °C 1012.4 hPa SSE 8 km/h 12.9 km/h 38 % 0 mm
13:22 25.4 °C 11.9 °C 1012.1 hPa SW 1.6 km/h 12.9 km/h 43 % 0 mm
13:27 25.6 °C 11.4 °C 1012.1 hPa WSW 1.6 km/h 12.9 km/h 41 % 0 mm
13:32 25.8 °C 11.2 °C 1012.1 hPa West 1.6 km/h 11.3 km/h 40 % 0 mm
13:33 25.8 °C 11.2 °C 1012.1 hPa SSW 3.2 km/h 11.3 km/h 40 % 0 mm
13:38 26 °C 12.5 °C 1011.7 hPa Calm   11.3 km/h 43 % 0 mm
13:43 26.2 °C 12.3 °C 1011.7 hPa SW 4.8 km/h 8 km/h 42 % 0 mm
13:48 26.3 °C 11.6 °C 1011.7 hPa Calm   6.4 km/h 40 % 0 mm
13:53 26.2 °C 10.8 °C 1011.4 hPa SE 1.6 km/h 9.7 km/h 38 % 0 mm
13:58 26 °C 11 °C 1011.4 hPa ESE 4.8 km/h 9.7 km/h 39 % 0 mm
14:03 25.9 °C 11.3 °C 1011.4 hPa SSE 3.2 km/h 9.7 km/h 40 % 0 mm
14:08 25.9 °C 10.5 °C 1011.4 hPa Calm   12.9 km/h 38 % 0 mm
14:13 25.9 °C 10.9 °C 1011.1 hPa SSE 6.4 km/h 12.9 km/h 39 % 0 mm
14:18 25.8 °C 10.8 °C 1011.1 hPa WNW 3.2 km/h 12.9 km/h 39 % 0 mm
14:23 25.9 °C 12 °C 1011.1 hPa SSE 3.2 km/h 11.3 km/h 42 % 0 mm
14:28 26.2 °C 11.9 °C 1011.1 hPa ESE 11.3 km/h 12.9 km/h 41 % 0 mm
14:33 26.3 °C 11.2 °C 1011.1 hPa South 6.4 km/h 12.9 km/h 39 % 0 mm
14:38 26.2 °C 10.8 °C 1011.1 hPa ENE 1.6 km/h 12.9 km/h 38 % 0 mm
14:43 26 °C 10.2 °C 1010.7 hPa SE 1.6 km/h 12.9 km/h 37 % 0 mm
14:48 26.4 °C 10.5 °C 1010.7 hPa SE 6.4 km/h 12.9 km/h 37 % 0 mm
14:54 26.4 °C 10.9 °C 1010.7 hPa SW 1.6 km/h 12.9 km/h 38 % 0 mm
14:59 26.3 °C 9.2 °C 1010.4 hPa East 9.7 km/h 12.9 km/h 34 % 0 mm
15:04 26.2 °C 10.8 °C 1010.4 hPa SSE 4.8 km/h 12.9 km/h 38 % 0 mm
15:09 26.4 °C 10.9 °C 1010 hPa SSW 11.3 km/h 12.9 km/h 38 % 0 mm
15:14 26.7 °C 12.7 °C 1010 hPa SE 3.2 km/h 12.9 km/h 42 % 0 mm
15:19 26.7 °C 10.8 °C 1010 hPa SSE 6.4 km/h 12.9 km/h 37 % 0 mm
15:24 26.6 °C 10.7 °C 1010 hPa ESE 12.9 km/h 12.9 km/h 37 % 0 mm
15:29 26.7 °C 11.2 °C 1009.7 hPa ESE 6.4 km/h 17.7 km/h 38 % 0 mm
15:34 26.7 °C 10.8 °C 1009.7 hPa South 8 km/h 17.7 km/h 37 % 0 mm
15:39 26.8 °C 11.3 °C 1009.4 hPa ENE 4.8 km/h 17.7 km/h 38 % 0 mm
15:44 27 °C 11.1 °C 1009.4 hPa SSE 4.8 km/h 14.5 km/h 37 % 0 mm
15:49 27.1 °C 11.2 °C 1009.4 hPa South 6.4 km/h 14.5 km/h 37 % 0 mm
15:54 26.9 °C 11 °C 1009.4 hPa SSE 6.4 km/h 16.1 km/h 37 % 0 mm
15:59 27.1 °C 11.2 °C 1009.4 hPa Calm   16.1 km/h 37 % 0 mm
16:04 27.1 °C 11.6 °C 1009.4 hPa SSW 9.7 km/h 16.1 km/h 38 % 0 mm
16:09 26.9 °C 11.8 °C 1009 hPa SSW 9.7 km/h 14.5 km/h 39 % 0 mm
16:14 27.2 °C 12 °C 1009 hPa WSW 1.6 km/h 16.1 km/h 39 % 0 mm
16:19 27.6 °C 11.6 °C 1009 hPa South 3.2 km/h 16.1 km/h 37 % 0 mm
16:24 27.6 °C 12.8 °C 1008.7 hPa SW 4.8 km/h 16.1 km/h 40 % 0 mm
16:29 27.4 °C 11.8 °C 1008.7 hPa SW 4.8 km/h 12.9 km/h 38 % 0 mm
16:34 27.3 °C 12.1 °C 1008.4 hPa SW 3.2 km/h 12.9 km/h 39 % 0 mm
16:39 27.4 °C 11.8 °C 1008.4 hPa SE 4.8 km/h 12.9 km/h 38 % 0 mm
16:44 27.2 °C 11.6 °C 1008.4 hPa SSW 12.9 km/h 12.9 km/h 38 % 0 mm
16:49 26.9 °C 11.8 °C 1008.4 hPa ESE 1.6 km/h 16.1 km/h 39 % 0 mm
16:54 27.2 °C 12 °C 1008.4 hPa SE 4.8 km/h 16.1 km/h 39 % 0 mm
16:59 27.4 °C 11.8 °C 1008.4 hPa SSE 6.4 km/h 16.1 km/h 38 % 0 mm
17:04 27.3 °C 11.7 °C 1008 hPa NE 1.6 km/h 12.9 km/h 38 % 0 mm
17:09 27.4 °C 11.8 °C 1008.4 hPa South 6.4 km/h 12.9 km/h 38 % 0 mm
17:14 27.4 °C 12.2 °C 1008.4 hPa SE 11.3 km/h 19.3 km/h 39 % 0 mm
17:19 27.3 °C 11.7 °C 1008 hPa SSW 11.3 km/h 19.3 km/h 38 % 0 mm
17:24 27.3 °C 11.7 °C 1008 hPa South 14.5 km/h 19.3 km/h 38 % 0 mm
17:29 27.1 °C 11.2 °C 1008 hPa SSW 4.8 km/h 16.1 km/h 37 % 0 mm
17:34 27.1 °C 11.6 °C 1008 hPa SSW 9.7 km/h 16.1 km/h 38 % 0 mm
17:39 27.1 °C 11.6 °C 1008 hPa SSW 1.6 km/h 16.1 km/h 38 % 0 mm
17:44 27 °C 11.1 °C 1007.7 hPa SSW 9.7 km/h 12.9 km/h 37 % 0 mm
17:49 26.8 °C 11.3 °C 1008 hPa SSE 6.4 km/h 19.3 km/h 38 % 0 mm
17:54 26.7 °C 11.6 °C 1007.7 hPa South 1.6 km/h 19.3 km/h 39 % 0 mm
17:59 26.8 °C 11.7 °C 1008 hPa SSW 6.4 km/h 19.3 km/h 39 % 0 mm
18:04 26.8 °C 11.3 °C 1007.7 hPa SSE 4.8 km/h 16.1 km/h 38 % 0 mm
18:09 26.8 °C 11.7 °C 1007.7 hPa SSW 12.9 km/h 12.9 km/h 39 % 0 mm
18:14 26.7 °C 11.6 °C 1007.7 hPa SW 6.4 km/h 14.5 km/h 39 % 0 mm
18:19 26.6 °C 11.5 °C 1007.3 hPa East 8 km/h 14.5 km/h 39 % 0 mm
18:24 26.7 °C 11.6 °C 1007.3 hPa SE 6.4 km/h 14.5 km/h 39 % 0 mm
18:29 26.7 °C 11.6 °C 1007.7 hPa South 6.4 km/h 14.5 km/h 39 % 0 mm
18:34 26.6 °C 12.3 °C 1007.7 hPa SSE 8 km/h 14.5 km/h 41 % 0 mm
18:39 26.6 °C 11.9 °C 1007.3 hPa ESE 3.2 km/h 14.5 km/h 40 % 0 mm
18:44 26.5 °C 12.2 °C 1007.3 hPa SSW 8 km/h 14.5 km/h 41 % 0 mm
18:50 26.3 °C 12 °C 1007.3 hPa WSW 6.4 km/h 14.5 km/h 41 % 0 mm
18:55 26.2 °C 11.5 °C 1007.3 hPa SSW 6.4 km/h 12.9 km/h 40 % 0 mm
19:00 26 °C 11.7 °C 1007.3 hPa South 9.7 km/h 17.7 km/h 41 % 0 mm
19:05 25.9 °C 11.6 °C 1007.3 hPa SE 6.4 km/h 17.7 km/h 41 % 0 mm
19:10 25.8 °C 11.9 °C 1007.3 hPa SSW 6.4 km/h 17.7 km/h 42 % 0 mm
19:15 25.6 °C 11.7 °C 1007.3 hPa SSW 6.4 km/h 17.7 km/h 42 % 0 mm
19:20 25.4 °C 11.6 °C 1007.3 hPa South 8 km/h 17.7 km/h 42 % 0 mm
19:25 25.2 °C 12.1 °C 1007.3 hPa SSW 9.7 km/h 14.5 km/h 44 % 0 mm
19:30 25 °C 11.9 °C 1007.3 hPa South 4.8 km/h 12.9 km/h 44 % 0 mm
19:35 24.7 °C 12 °C 1007.3 hPa SE 6.4 km/h 14.5 km/h 45 % 0 mm
19:40 24.6 °C 12.5 °C 1007.3 hPa SE 14.5 km/h 14.5 km/h 47 % 0 mm
19:45 24.4 °C 14.5 °C 1007.3 hPa SSE 11.3 km/h 17.7 km/h 54 % 0 mm
19:50 24 °C 14.7 °C 1007.3 hPa South 11.3 km/h 17.7 km/h 56 % 0 mm
19:55 23.7 °C 14.9 °C 1007.3 hPa South 16.1 km/h 20.9 km/h 58 % 0 mm
20:00 23.5 °C 14.8 °C 1007.3 hPa South 8 km/h 20.9 km/h 58 % 0 mm
20:05 23.3 °C 14.8 °C 1007.3 hPa South 8 km/h 20.9 km/h 59 % 0 mm
20:10 23.1 °C 14.9 °C 1007.3 hPa South 4.8 km/h 20.9 km/h 60 % 0 mm
20:15 23 °C 14.8 °C 1007.3 hPa South 12.9 km/h 19.3 km/h 60 % 0 mm
20:16 23 °C 14.8 °C 1007.3 hPa SSW 6.4 km/h 19.3 km/h 60 % 0 mm
20:21 22.9 °C 15 °C 1007.3 hPa SE 6.4 km/h 19.3 km/h 61 % 0 mm
20:26 22.7 °C 14.8 °C 1007.3 hPa SE 3.2 km/h 16.1 km/h 61 % 0 mm
20:31 22.6 °C 14.7 °C 1007.3 hPa SE 4.8 km/h 14.5 km/h 61 % 0 mm
20:36 22.5 °C 14.9 °C 1007.3 hPa SSE 3.2 km/h 14.5 km/h 62 % 0 mm
20:41 22.4 °C 14.8 °C 1007.3 hPa South 8 km/h 14.5 km/h 62 % 0 mm
20:46 22.3 °C 14.9 °C 1007.3 hPa SSE 6.4 km/h 14.5 km/h 63 % 0 mm
20:51 22.2 °C 14.8 °C 1007.3 hPa South 4.8 km/h 14.5 km/h 63 % 0 mm
20:56 22.1 °C 14.7 °C 1007.3 hPa South 4.8 km/h 12.9 km/h 63 % 0 mm
21:01 21.9 °C 14.8 °C 1007.3 hPa SSE 6.4 km/h 12.9 km/h 64 % 0 mm
21:06 21.9 °C 14.5 °C 1007.3 hPa SSE 8 km/h 14.5 km/h 63 % 0 mm
21:11 21.8 °C 14.4 °C 1007.3 hPa SE 4.8 km/h 19.3 km/h 63 % 0 mm
21:16 21.7 °C 14.3 °C 1007.3 hPa SSW 11.3 km/h 19.3 km/h 63 % 0 mm
21:21 21.7 °C 14.3 °C 1007.3 hPa SW 9.7 km/h 29 km/h 63 % 0 mm
21:26 21.6 °C 14.3 °C 1007.3 hPa SE 8 km/h 29 km/h 63 % 0 mm
21:31 21.4 °C 14.1 °C 1007.3 hPa SSE 4.8 km/h 29 km/h 63 % 0 mm
21:36 21.3 °C 14 °C 1007.3 hPa SW 4.8 km/h 16.1 km/h 63 % 0 mm
21:41 21.2 °C 13.9 °C 1007.3 hPa SSE 14.5 km/h 14.5 km/h 63 % 0 mm
21:46 21.2 °C 13.9 °C 1007.3 hPa SE 4.8 km/h 17.7 km/h 63 % 0 mm
21:51 21.1 °C 13.8 °C 1007.3 hPa South 9.7 km/h 19.3 km/h 63 % 0 mm
21:56 21.1 °C 13.8 °C 1007.3 hPa SE 4.8 km/h 20.9 km/h 63 % 0 mm
22:01 20.9 °C 13.8 °C 1007.3 hPa SSE 12.9 km/h 20.9 km/h 64 % 0 mm
22:06 20.8 °C 13.7 °C 1007.7 hPa SSE 3.2 km/h 20.9 km/h 64 % 0 mm
22:11 20.6 °C 13.8 °C 1007.7 hPa SSE 6.4 km/h 14.5 km/h 65 % 0 mm
22:17 20.5 °C 13.7 °C 1007.7 hPa SE 3.2 km/h 14.5 km/h 65 % 0 mm
22:22 20.4 °C 13.8 °C 1007.7 hPa SE 6.4 km/h 12.9 km/h 66 % 0 mm
22:27 20.4 °C 13.8 °C 1007.7 hPa SSE 11.3 km/h 14.5 km/h 66 % 0 mm
22:32 20.3 °C 13.7 °C 1007.7 hPa WSW 4.8 km/h 14.5 km/h 66 % 0 mm
22:37 20.2 °C 13.9 °C 1007.7 hPa SSE 3.2 km/h 14.5 km/h 67 % 0 mm
22:42 20.2 °C 13.9 °C 1007.7 hPa South 6.4 km/h 14.5 km/h 67 % 0 mm
22:47 20.1 °C 13.8 °C 1007.7 hPa SSE 3.2 km/h 14.5 km/h 67 % 0 mm
22:52 20 °C 13.9 °C 1007.7 hPa South 3.2 km/h 14.5 km/h 68 % 0 mm
22:57 19.9 °C 14 °C 1007.7 hPa East 6.4 km/h 12.9 km/h 69 % 0 mm
23:02 19.8 °C 13.9 °C 1007.7 hPa South 4.8 km/h 12.9 km/h 69 % 0 mm
23:07 19.8 °C 13.9 °C 1007.7 hPa South 9.7 km/h 12.9 km/h 69 % 0 mm
23:12 19.8 °C 14.2 °C 1007.3 hPa SSW 3.2 km/h 12.9 km/h 70 % 0 mm
23:17 19.7 °C 14.1 °C 1007.7 hPa SW 4.8 km/h 12.9 km/h 70 % 0 mm
23:22 19.6 °C 14.2 °C 1007.3 hPa South 4.8 km/h 12.9 km/h 71 % 0 mm
23:27 19.6 °C 14.2 °C 1007.3 hPa SSW 3.2 km/h 9.7 km/h 71 % 0 mm
23:32 19.6 °C 14.2 °C 1007.3 hPa SSE 4.8 km/h 9.7 km/h 71 % 0 mm
23:37 19.5 °C 14.1 °C 1007.3 hPa SSE 3.2 km/h 9.7 km/h 71 % 0 mm
23:42 19.4 °C 14.2 °C 1007.3 hPa SSE 3.2 km/h 9.7 km/h 72 % 0 mm
23:47 19.3 °C 14.1 °C 1007.3 hPa SSE 3.2 km/h 8 km/h 72 % 0 mm
23:52 19.3 °C 14.3 °C 1007.3 hPa SSW 3.2 km/h 9.7 km/h 73 % 0 mm
23:57 19.3 °C 14.3 °C 1007.3 hPa South 4.8 km/h 9.7 km/h 73 % 0 mm
Spring, Texas: Villages of Bridgestone
Compliments of Weather Underground - 2.75 mb

Script developed by  Jim McMurry - jmcmurry@mwt.net Adapted for the template by  Wim van der Kuil - Leuven-Template.eu

You find our weather info also at:

UK Metoffice

WeatherCloud

Weather Underground

Mid-South Weather Network

AWEKAS

Citizen Weather Observer Program (CWOP)

HAMweather, WeatherForYou, PWS Weather

Equipment we use:

Weather-station
Davis Vantage Vue

Weather-program
Meteohub

Weather-server
Debian 7.9 x86 (Guest)

Provider
DreamHost

Davis Vantage Vue

Meteohub

Debian 7.9 x86 (Guest)

DreamHost